Time;durP1;ratioP1;P1;durP2;ratioP2;P2;SDS_P1;SDS_P2;PMS_P1;PMS_P2;Temp;Humidity;BMP_temperature;BMP_pressure;BME280_temperature;BME280_humidity;BME280_pressure;Samples;Min_cycle;Max_cycle;Signal;HPM_P1;HPM_P2
2022/04/15 00:01:43;;;;;;;2.55;2.00;;;;;;;;;;10367195;28;20356;-63
2022/04/15 00:06:44;;;;;;;3.15;2.22;;;;;;;;;;10371299;28;20050;-63
2022/04/15 00:11:44;;;;;;;2.42;2.08;;;;;;;;;;10385888;28;20038;-61
2022/04/15 00:16:45;;;;;;;2.55;2.10;;;;;;;;;;10385443;28;20137;-62
2022/04/15 00:21:45;;;;;;;2.37;2.17;;;;;;;;;;10368426;28;20481;-62
2022/04/15 00:26:46;;;;;;;1.73;1.63;;;;;;;;;;10356744;28;20289;-62
2022/04/15 00:31:46;;;;;;;2.30;2.10;;;;;;;;;;10363687;28;20050;-62
2022/04/15 00:36:46;;;;;;;2.10;1.90;;;;;;;;;;10374793;27;20041;-62
2022/04/15 00:41:47;;;;;;;2.75;1.88;;;;;;;;;;10379076;28;20050;-61
2022/04/15 00:46:47;;;;;;;2.63;1.83;;;;;;;;;;10367352;28;20057;-62
2022/04/15 00:51:49;;;;;;;2.30;1.80;;;;;;;;;;10379416;28;20469;-62
2022/04/15 00:56:50;;;;;;;2.20;2.00;;;;;;;;;;10373587;28;20038;-62
2022/04/15 01:01:51;;;;;;;2.20;2.00;;;;;;;;;;10373375;28;20054;-62
2022/04/15 01:06:54;;;;;;;2.00;1.90;;;;;;;;;;10370791;28;20038;-62
2022/04/15 01:11:55;;;;;;;2.20;1.80;;;;;;;;;;10365013;28;20068;-62
2022/04/15 01:16:55;;;;;;;2.05;1.85;;;;;;;;;;10372812;28;20125;-61
2022/04/15 01:21:56;;;;;;;2.00;1.80;;;;;;;;;;10376106;28;20378;-62
2022/04/15 01:26:57;;;;;;;2.13;1.80;;;;;;;;;;10377203;28;20048;-62
2022/04/15 01:31:57;;;;;;;2.08;1.90;;;;;;;;;;10364510;28;20057;-62
2022/04/15 01:36:59;;;;;;;1.97;1.87;;;;;;;;;;10380774;28;20038;-62
2022/04/15 01:41:59;;;;;;;2.00;1.80;;;;;;;;;;10374156;28;20313;-62
2022/04/15 01:47:00;;;;;;;2.80;2.10;;;;;;;;;;10367182;28;20041;-61
2022/04/15 01:52:00;;;;;;;2.00;1.90;;;;;;;;;;10365042;28;20042;-62
2022/04/15 01:57:00;;;;;;;2.00;1.70;;;;;;;;;;10367426;27;20038;-62
2022/04/15 02:02:01;;;;;;;2.03;1.80;;;;;;;;;;10370397;27;20301;-61
2022/04/15 02:07:02;;;;;;;2.20;1.70;;;;;;;;;;10371061;28;20117;-62
2022/04/15 02:12:03;;;;;;;2.38;1.98;;;;;;;;;;10387217;28;20060;-64
2022/04/15 02:17:04;;;;;;;2.15;1.95;;;;;;;;;;10368926;28;20053;-63
2022/04/15 02:22:04;;;;;;;1.98;1.75;;;;;;;;;;10357818;28;20046;-64
2022/04/15 02:27:05;;;;;;;2.03;1.87;;;;;;;;;;10376938;28;20098;-64
2022/04/15 02:32:05;;;;;;;1.60;1.50;;;;;;;;;;10372899;28;20083;-63
2022/04/15 02:37:09;;;;;;;2.35;1.70;;;;;;;;;;10368065;27;20315;-62
2022/04/15 02:42:09;;;;;;;1.53;1.43;;;;;;;;;;10370277;28;20145;-63
2022/04/15 02:47:09;;;;;;;2.17;1.97;;;;;;;;;;10387596;27;20042;-63
2022/04/15 02:52:10;;;;;;;1.90;1.70;;;;;;;;;;10373546;28;20041;-63
2022/04/15 02:57:10;;;;;;;1.60;1.50;;;;;;;;;;10358643;28;20103;-63
2022/04/15 03:02:10;;;;;;;1.60;1.50;;;;;;;;;;10353589;28;20129;-62
2022/04/15 03:07:11;;;;;;;1.80;1.70;;;;;;;;;;10381674;28;20034;-63
2022/04/15 03:12:11;;;;;;;1.70;1.60;;;;;;;;;;10360927;27;20409;-63
2022/04/15 03:17:12;;;;;;;1.70;1.60;;;;;;;;;;10358315;28;20049;-62
2022/04/15 03:22:15;;;;;;;1.70;1.60;;;;;;;;;;10363897;28;20074;-62
2022/04/15 03:27:15;;;;;;;1.90;1.52;;;;;;;;;;10363283;28;20129;-62
2022/04/15 03:32:16;;;;;;;1.93;1.73;;;;;;;;;;10384611;28;20052;-62
2022/04/15 03:37:16;;;;;;;1.85;1.75;;;;;;;;;;10379261;28;20326;-63
2022/04/15 03:42:16;;;;;;;1.45;1.35;;;;;;;;;;10378797;27;20488;-63
2022/04/15 03:47:17;;;;;;;1.57;1.47;;;;;;;;;;10378915;28;20109;-63
2022/04/15 03:52:17;;;;;;;2.27;1.60;;;;;;;;;;10368647;28;20073;-62
2022/04/15 03:57:17;;;;;;;1.83;1.70;;;;;;;;;;10374627;28;20045;-63
2022/04/15 04:02:17;;;;;;;1.50;1.40;;;;;;;;;;10365995;28;20413;-63
2022/04/15 04:07:18;;;;;;;3.60;1.63;;;;;;;;;;10364163;28;20133;-62
2022/04/15 04:12:19;;;;;;;1.50;1.40;;;;;;;;;;10376374;28;20074;-63
2022/04/15 04:17:19;;;;;;;1.52;1.42;;;;;;;;;;10367623;28;20037;-63
2022/04/15 04:22:19;;;;;;;1.63;1.53;;;;;;;;;;10366821;28;20053;-62
2022/04/15 04:27:20;;;;;;;1.50;1.40;;;;;;;;;;10367802;28;20034;-62
2022/04/15 04:32:20;;;;;;;1.42;1.33;;;;;;;;;;10363709;28;20087;-63
2022/04/15 04:37:20;;;;;;;1.95;1.30;;;;;;;;;;10364384;28;20508;-63
2022/04/15 04:42:21;;;;;;;1.40;1.30;;;;;;;;;;10389764;28;20049;-62
2022/04/15 04:47:22;;;;;;;1.83;1.50;;;;;;;;;;10368405;28;20061;-62
2022/04/15 04:52:23;;;;;;;1.52;1.42;;;;;;;;;;10382366;28;20370;-61
2022/04/15 04:57:23;;;;;;;1.50;1.40;;;;;;;;;;10367403;28;20038;-62
2022/04/15 05:02:24;;;;;;;1.92;1.27;;;;;;;;;;10368982;28;20412;-61
2022/04/15 05:07:24;;;;;;;1.70;1.60;;;;;;;;;;10380354;28;20034;-61
2022/04/15 05:12:24;;;;;;;1.42;1.33;;;;;;;;;;10379126;27;20045;-62
2022/04/15 05:17:24;;;;;;;1.60;1.50;;;;;;;;;;10391589;28;20047;-62
2022/04/15 05:22:25;;;;;;;1.50;1.40;;;;;;;;;;10370874;28;20061;-61
2022/04/15 05:27:26;;;;;;;2.45;1.40;;;;;;;;;;10363560;28;20272;-61
2022/04/15 05:32:26;;;;;;;1.50;1.40;;;;;;;;;;10360055;28;20117;-62
2022/04/15 05:37:26;;;;;;;1.73;1.40;;;;;;;;;;10376278;28;20095;-62
2022/04/15 05:42:28;;;;;;;1.48;1.25;;;;;;;;;;10374142;28;20123;-61
2022/04/15 05:47:28;;;;;;;1.50;1.40;;;;;;;;;;10382216;28;20038;-62
2022/04/15 05:52:29;;;;;;;1.30;1.20;;;;;;;;;;10367313;28;20050;-61
2022/04/15 05:57:29;;;;;;;1.40;1.30;;;;;;;;;;10375746;28;20045;-61
2022/04/15 06:02:29;;;;;;;1.70;1.60;;;;;;;;;;10370490;27;20080;-62
2022/04/15 06:07:30;;;;;;;1.50;1.00;;;;;;;;;;10363113;28;20129;-61
2022/04/15 06:18:02;;;;;;;1.40;1.30;;;;;;;;;;10373341;28;20049;-61
2022/04/15 06:23:03;;;;;;;1.27;1.17;;;;;;;;;;10375608;28;20501;-63
2022/04/15 06:28:04;;;;;;;4.22;1.63;;;;;;;;;;10364476;28;20095;-62
2022/04/15 06:33:05;;;;;;;1.60;1.40;;;;;;;;;;10368692;28;20412;-62
2022/04/15 06:38:06;;;;;;;1.40;1.30;;;;;;;;;;10377737;28;20048;-61
2022/04/15 06:43:06;;;;;;;1.77;1.50;;;;;;;;;;10386854;27;20648;-62
2022/04/15 06:48:07;;;;;;;2.13;1.50;;;;;;;;;;10362868;28;20070;-61
2022/04/15 06:53:08;;;;;;;2.45;1.48;;;;;;;;;;10388502;28;20045;-62
2022/04/15 06:58:08;;;;;;;1.50;1.40;;;;;;;;;;10369891;27;20411;-63
2022/04/15 07:03:12;;;;;;;1.60;1.50;;;;;;;;;;10371591;28;20099;-63
2022/04/15 07:08:13;;;;;;;1.83;1.70;;;;;;;;;;10387003;28;20377;-63
2022/04/15 07:13:13;;;;;;;1.77;1.63;;;;;;;;;;10364396;28;20058;-62
2022/04/15 07:18:13;;;;;;;5.73;2.03;;;;;;;;;;10362496;28;20273;-63
2022/04/15 07:23:13;;;;;;;2.70;1.70;;;;;;;;;;10373853;28;20058;-63
2022/04/15 07:28:14;;;;;;;1.92;1.67;;;;;;;;;;10370195;27;20400;-63
2022/04/15 07:33:16;;;;;;;1.70;1.60;;;;;;;;;;10388963;28;20039;-61
2022/04/15 07:38:19;;;;;;;1.75;1.40;;;;;;;;;;10382058;28;20042;-62
2022/04/15 07:43:19;;;;;;;2.38;1.70;;;;;;;;;;10383752;28;20050;-62
2022/04/15 07:48:20;;;;;;;1.90;1.80;;;;;;;;;;10363722;28;20053;-62
2022/04/15 07:53:20;;;;;;;1.73;1.63;;;;;;;;;;10365492;28;20050;-62
2022/04/15 07:58:20;;;;;;;1.80;1.60;;;;;;;;;;10383541;27;20406;-61
2022/04/15 08:03:25;;;;;;;3.35;1.75;;;;;;;;;;10369599;28;20049;-62
2022/04/15 08:08:26;;;;;;;3.33;1.60;;;;;;;;;;10367768;28;20042;-62
2022/04/15 08:13:26;;;;;;;2.22;1.55;;;;;;;;;;10375874;28;20042;-62
2022/04/15 08:18:27;;;;;;;3.10;2.45;;;;;;;;;;10368083;28;20450;-62
2022/04/15 08:23:27;;;;;;;7.95;4.95;;;;;;;;;;10371146;28;20050;-63
2022/04/15 08:28:27;;;;;;;11.68;9.02;;;;;;;;;;10363851;28;20033;-62
2022/04/15 08:33:28;;;;;;;16.67;12.38;;;;;;;;;;10370187;28;20053;-62
2022/04/15 08:38:28;;;;;;;23.63;16.87;;;;;;;;;;10368097;28;20045;-63
2022/04/15 08:43:29;;;;;;;25.58;19.52;;;;;;;;;;10363544;28;20054;-62
2022/04/15 08:48:30;;;;;;;33.53;22.80;;;;;;;;;;10371318;28;20042;-62
2022/04/15 08:53:31;;;;;;;34.63;24.80;;;;;;;;;;10374182;28;20060;-62
2022/04/15 08:58:32;;;;;;;31.52;25.92;;;;;;;;;;10373461;28;20068;-62
2022/04/15 09:03:32;;;;;;;34.22;27.27;;;;;;;;;;10378717;27;20058;-63
2022/04/15 09:08:34;;;;;;;36.45;27.92;;;;;;;;;;10380012;28;20128;-63
2022/04/15 09:13:35;;;;;;;41.40;28.67;;;;;;;;;;10371774;28;20135;-62
2022/04/15 09:18:36;;;;;;;37.25;27.75;;;;;;;;;;10381724;28;20038;-70
2022/04/15 09:23:36;;;;;;;40.33;27.23;;;;;;;;;;10346030;28;20058;-73
2022/04/15 09:28:37;;;;;;;38.17;28.10;;;;;;;;;;10354065;28;20069;-72
2022/04/15 09:33:38;;;;;;;38.58;28.73;;;;;;;;;;10348279;27;20046;-75
2022/04/15 09:38:39;;;;;;;34.53;27.67;;;;;;;;;;10352420;28;21030;-73
2022/04/15 09:43:50;;;;;;;37.90;27.83;;;;;;;;;;10341465;28;20056;-72
2022/04/15 09:49:04;;;;;;;42.17;26.30;;;;;;;;;;10345091;28;20447;-72
2022/04/15 09:54:05;;;;;;;32.92;25.67;;;;;;;;;;10350026;28;20156;-72
2022/04/15 09:59:08;;;;;;;36.00;25.77;;;;;;;;;;10354407;28;20037;-72
2022/04/15 10:04:10;;;;;;;35.45;24.83;;;;;;;;;;10371199;28;20095;-72
2022/04/15 10:09:13;;;;;;;32.60;24.38;;;;;;;;;;10345299;28;20450;-64
2022/04/15 10:14:15;;;;;;;24.92;20.52;;;;;;;;;;10361327;28;20049;-64
2022/04/15 10:19:15;;;;;;;17.33;14.60;;;;;;;;;;10387389;28;20045;-63
2022/04/15 10:24:16;;;;;;;16.40;11.98;;;;;;;;;;10357980;28;20493;-63
2022/04/15 10:29:17;;;;;;;12.90;10.45;;;;;;;;;;10353231;28;20080;-63
2022/04/15 10:34:19;;;;;;;10.05;8.85;;;;;;;;;;10360190;28;20136;-63
2022/04/15 10:39:20;;;;;;;9.93;8.27;;;;;;;;;;10359824;28;20042;-63
2022/04/15 10:44:27;;;;;;;12.60;7.93;;;;;;;;;;10365755;28;20050;-62
2022/04/15 10:49:30;;;;;;;10.50;7.72;;;;;;;;;;10360852;28;20053;-64
2022/04/15 10:54:36;;;;;;;8.82;7.28;;;;;;;;;;10384626;28;20042;-63
2022/04/15 11:04:56;;;;;;;9.18;7.03;;;;;;;;;;10358800;28;20050;-65
2022/04/15 11:09:58;;;;;;;7.80;5.90;;;;;;;;;;10387886;28;20469;-65
2022/04/15 11:14:58;;;;;;;5.47;4.90;;;;;;;;;;10364304;28;20286;-63
2022/04/15 11:19:58;;;;;;;5.07;4.33;;;;;;;;;;10359077;28;20038;-63
2022/04/15 11:24:59;;;;;;;5.70;4.70;;;;;;;;;;10360827;28;20042;-63
2022/04/15 11:30:04;;;;;;;4.10;3.70;;;;;;;;;;10369333;28;20339;-64
2022/04/15 11:35:05;;;;;;;3.97;3.35;;;;;;;;;;10358782;28;20056;-63
2022/04/15 11:40:06;;;;;;;5.30;2.72;;;;;;;;;;10365830;28;20045;-65
2022/04/15 11:45:11;;;;;;;2.55;1.83;;;;;;;;;;10361509;28;20062;-63
2022/04/15 11:50:12;;;;;;;2.05;1.77;;;;;;;;;;10361801;27;20103;-63
2022/04/15 11:55:15;;;;;;;2.10;1.60;;;;;;;;;;10387635;27;20054;-62
2022/04/15 12:00:18;;;;;;;1.65;1.20;;;;;;;;;;10363515;28;20707;-62
2022/04/15 12:05:18;;;;;;;1.65;1.40;;;;;;;;;;10402896;28;20106;-63
2022/04/15 12:10:20;;;;;;;3.43;1.43;;;;;;;;;;10358677;28;20545;-63
2022/04/15 12:15:28;;;;;;;1.83;1.30;;;;;;;;;;10365470;28;20141;-63
2022/04/15 12:20:29;;;;;;;1.40;1.30;;;;;;;;;;10371796;27;20042;-63
2022/04/15 12:26:05;;;;;;;2.08;1.40;;;;;;;;;;10372735;28;20058;-63
2022/04/15 12:30:50;;;;;;;1.90;1.38;;;;;;;;;;10365299;28;20544;-63
2022/04/15 12:36:02;;;;;;;3.13;1.60;;;;;;;;;;10375109;28;20129;-63
2022/04/15 12:41:12;;;;;;;3.22;1.30;;;;;;;;;;10361910;28;20560;-64
2022/04/15 12:46:16;;;;;;;2.38;1.50;;;;;;;;;;10355356;28;20056;-64
2022/04/15 12:51:17;;;;;;;3.50;1.40;;;;;;;;;;10373597;28;20068;-65
2022/04/15 12:56:18;;;;;;;4.37;1.27;;;;;;;;;;10382534;28;20053;-66
2022/04/15 13:01:18;;;;;;;13.25;2.30;;;;;;;;;;10376922;28;20068;-66
2022/04/15 13:06:18;;;;;;;4.57;2.30;;;;;;;;;;10370261;28;20078;-64
2022/04/15 13:11:19;;;;;;;2.72;2.30;;;;;;;;;;10370363;28;20045;-64
2022/04/15 13:16:21;;;;;;;3.47;2.00;;;;;;;;;;10361057;28;20069;-64
2022/04/15 13:21:21;;;;;;;4.97;3.50;;;;;;;;;;10355248;27;20045;-65
2022/04/15 13:26:22;;;;;;;3.77;3.00;;;;;;;;;;10361526;27;20493;-64
2022/04/15 13:31:22;;;;;;;4.72;2.50;;;;;;;;;;10375550;28;20068;-65
2022/04/15 13:36:22;;;;;;;3.90;2.45;;;;;;;;;;10358187;28;20430;-65
2022/04/15 13:41:26;;;;;;;2.20;1.90;;;;;;;;;;10377215;28;20049;-65
2022/04/15 13:46:26;;;;;;;4.05;2.45;;;;;;;;;;10369331;28;20332;-64
2022/04/15 13:51:28;;;;;;;22.92;7.13;;;;;;;;;;10370977;28;20511;-64
2022/04/15 13:56:34;;;;;;;72.50;18.45;;;;;;;;;;10369391;27;20220;-64
2022/04/15 14:01:36;;;;;;;86.78;24.80;;;;;;;;;;10364840;28;20157;-64
2022/04/15 14:06:37;;;;;;;56.88;18.33;;;;;;;;;;10360928;28;20575;-63
2022/04/15 14:11:38;;;;;;;65.35;17.42;;;;;;;;;;10369187;28;20893;-66
2022/04/15 14:16:39;;;;;;;54.42;15.82;;;;;;;;;;10370497;28;20041;-65
2022/04/15 14:21:40;;;;;;;42.78;13.55;;;;;;;;;;10364023;28;20041;-64
2022/04/15 14:26:40;;;;;;;24.93;8.70;;;;;;;;;;10368121;27;20053;-64
2022/04/15 14:31:41;;;;;;;23.20;7.70;;;;;;;;;;10366038;28;20087;-64
2022/04/15 14:36:41;;;;;;;12.35;4.63;;;;;;;;;;10368274;28;20068;-66
2022/04/15 14:41:41;;;;;;;10.98;4.22;;;;;;;;;;10355576;28;20042;-64
2022/04/15 14:46:42;;;;;;;8.47;3.77;;;;;;;;;;10355709;28;20050;-65
2022/04/15 14:51:42;;;;;;;9.60;3.57;;;;;;;;;;10359968;28;20070;-65
2022/04/15 14:56:43;;;;;;;15.52;4.07;;;;;;;;;;10383062;28;20141;-67
2022/04/15 15:01:43;;;;;;;9.63;3.03;;;;;;;;;;10375108;28;20536;-68
2022/04/15 15:06:43;;;;;;;10.57;3.50;;;;;;;;;;10371299;28;20042;-67
2022/04/15 15:11:44;;;;;;;11.43;3.27;;;;;;;;;;10361513;28;20303;-68
2022/04/15 15:16:45;;;;;;;3.83;2.25;;;;;;;;;;10365734;28;20186;-67
2022/04/15 15:21:48;;;;;;;6.68;2.40;;;;;;;;;;10461995;27;20061;-65
2022/04/15 15:32:08;;;;;;;3.30;2.40;;;;;;;;;;10343511;28;20052;-66
2022/04/15 15:37:08;;;;;;;3.78;2.20;;;;;;;;;;10380760;28;20038;-65
2022/04/15 15:42:09;;;;;;;2.40;2.17;;;;;;;;;;10411285;28;20908;-66
2022/04/15 15:47:09;;;;;;;2.63;1.70;;;;;;;;;;10374309;28;20051;-65
2022/04/15 15:52:10;;;;;;;2.33;1.73;;;;;;;;;;10370348;28;20121;-64
2022/04/15 15:57:10;;;;;;;2.03;1.60;;;;;;;;;;10361614;28;20378;-64
2022/04/15 16:02:11;;;;;;;3.23;2.00;;;;;;;;;;10371328;28;20044;-63
2022/04/15 16:07:12;;;;;;;4.03;2.00;;;;;;;;;;10363527;28;20129;-64
2022/04/15 16:12:12;;;;;;;5.70;2.10;;;;;;;;;;10368091;28;20437;-64
2022/04/15 16:17:12;;;;;;;6.95;2.00;;;;;;;;;;10362374;28;20292;-64
2022/04/15 16:22:13;;;;;;;5.13;1.90;;;;;;;;;;10369584;28;20064;-65
2022/04/15 16:27:13;;;;;;;20.02;3.80;;;;;;;;;;10372607;28;20048;-65
2022/04/15 16:32:15;;;;;;;10.17;2.67;;;;;;;;;;10360594;28;20082;-64
2022/04/15 16:37:15;;;;;;;6.38;2.08;;;;;;;;;;10360564;28;20782;-65
2022/04/15 16:42:15;;;;;;;6.53;2.20;;;;;;;;;;10368533;28;20218;-64
2022/04/15 16:47:16;;;;;;;17.27;3.00;;;;;;;;;;10378936;28;20285;-64
2022/04/15 16:52:16;;;;;;;55.97;7.50;;;;;;;;;;10371832;27;20058;-64
2022/04/15 17:02:36;;;;;;;10.23;2.70;;;;;;;;;;10379368;28;20072;-63
2022/04/15 17:07:37;;;;;;;10.88;8.23;;;;;;;;;;10361920;28;20075;-64
2022/04/15 17:12:37;;;;;;;13.90;10.37;;;;;;;;;;10370610;28;20058;-64
2022/04/15 17:17:38;;;;;;;4.75;4.13;;;;;;;;;;10357757;28;20050;-65
2022/04/15 17:22:38;;;;;;;4.47;3.17;;;;;;;;;;10361587;28;20505;-65
2022/04/15 17:27:39;;;;;;;2.92;2.63;;;;;;;;;;10367120;28;20132;-65
2022/04/15 17:32:39;;;;;;;4.25;2.80;;;;;;;;;;10391735;28;20050;-64
2022/04/15 17:37:39;;;;;;;3.80;3.07;;;;;;;;;;10366673;28;20064;-65
2022/04/15 17:42:40;;;;;;;3.20;2.50;;;;;;;;;;10365420;28;20057;-64
2022/04/15 17:47:40;;;;;;;4.67;2.70;;;;;;;;;;10377556;28;20129;-64
2022/04/15 17:52:40;;;;;;;4.43;2.10;;;;;;;;;;10367762;27;20602;-63
2022/04/15 17:57:41;;;;;;;4.33;2.17;;;;;;;;;;10357761;28;20102;-64
2022/04/15 18:02:43;;;;;;;2.78;2.30;;;;;;;;;;10404245;27;20050;-62
2022/04/15 18:07:44;;;;;;;3.53;2.23;;;;;;;;;;10380634;28;20084;-63
2022/04/15 18:12:44;;;;;;;3.33;2.10;;;;;;;;;;10363530;28;20187;-65
2022/04/15 18:17:44;;;;;;;2.23;2.03;;;;;;;;;;10379587;28;20278;-64
2022/04/15 18:22:45;;;;;;;3.37;2.17;;;;;;;;;;10365652;28;20281;-64
2022/04/15 18:27:45;;;;;;;2.40;1.90;;;;;;;;;;10379341;28;20056;-63
2022/04/15 18:32:45;;;;;;;2.63;2.00;;;;;;;;;;10384762;28;20281;-64
2022/04/15 18:37:46;;;;;;;2.07;1.87;;;;;;;;;;10363505;28;20136;-64
2022/04/15 18:42:46;;;;;;;3.27;2.00;;;;;;;;;;10415246;28;20516;-63
2022/04/15 18:47:46;;;;;;;2.27;1.70;;;;;;;;;;10395797;27;20281;-64
2022/04/15 18:52:47;;;;;;;2.85;1.40;;;;;;;;;;10398911;27;20050;-63
2022/04/15 18:57:48;;;;;;;1.60;1.50;;;;;;;;;;10384604;28;20053;-63
2022/04/15 19:02:48;;;;;;;1.70;1.60;;;;;;;;;;10406474;28;20316;-63
2022/04/15 19:07:49;;;;;;;1.73;1.63;;;;;;;;;;10400013;28;20129;-63
2022/04/15 19:12:49;;;;;;;1.40;1.30;;;;;;;;;;10379555;28;20075;-63
2022/04/15 19:17:49;;;;;;;2.13;1.40;;;;;;;;;;10369897;28;20034;-65
2022/04/15 19:22:50;;;;;;;1.73;1.50;;;;;;;;;;10365985;28;20382;-67
2022/04/15 19:27:50;;;;;;;1.63;1.30;;;;;;;;;;10390033;28;20480;-66
2022/04/15 19:32:50;;;;;;;1.43;1.33;;;;;;;;;;10366719;27;20744;-66
2022/04/15 19:37:51;;;;;;;1.30;1.20;;;;;;;;;;10359314;28;20038;-65
2022/04/15 19:42:51;;;;;;;1.73;1.55;;;;;;;;;;10362216;28;20054;-65
2022/04/15 19:47:52;;;;;;;1.40;1.27;;;;;;;;;;10366053;28;20125;-65
2022/04/15 19:52:53;;;;;;;1.80;1.15;;;;;;;;;;10371263;28;20050;-64
2022/04/15 20:03:12;;;;;;;1.30;1.20;;;;;;;;;;10362149;28;20050;-63
2022/04/15 20:08:15;;;;;;;1.50;1.20;;;;;;;;;;10363030;28;20047;-62
2022/04/15 20:13:16;;;;;;;1.10;1.00;;;;;;;;;;10360400;28;20281;-64
2022/04/15 20:18:16;;;;;;;2.45;1.25;;;;;;;;;;10356744;28;20090;-62
2022/04/15 20:23:18;;;;;;;2.08;1.15;;;;;;;;;;10352326;28;20048;-63
2022/04/15 20:28:21;;;;;;;1.10;1.00;;;;;;;;;;10362074;28;20091;-62
2022/04/15 20:33:21;;;;;;;1.10;1.00;;;;;;;;;;10364990;28;20488;-73
2022/04/15 20:38:22;;;;;;;1.33;0.95;;;;;;;;;;10349425;27;20049;-75
2022/04/15 20:43:22;;;;;;;4.88;1.30;;;;;;;;;;10349588;28;20085;-74
2022/04/15 20:53:42;;;;;;;3.00;1.40;;;;;;;;;;10360542;28;20072;-73
2022/04/15 20:58:44;;;;;;;1.90;1.30;;;;;;;;;;10350359;28;20046;-74
2022/04/15 21:03:44;;;;;;;2.17;1.40;;;;;;;;;;10361863;28;20050;-77
2022/04/15 21:08:45;;;;;;;2.07;1.07;;;;;;;;;;10360244;28;20057;-74
2022/04/15 21:13:46;;;;;;;2.75;1.25;;;;;;;;;;10369699;28;20053;-74
2022/04/15 21:18:46;;;;;;;1.20;1.02;;;;;;;;;;10347600;28;20425;-76
2022/04/15 21:23:46;;;;;;;2.87;1.20;;;;;;;;;;10343567;28;20054;-72
2022/04/15 21:28:47;;;;;;;1.92;1.20;;;;;;;;;;10351346;28;20034;-73
2022/04/15 21:33:47;;;;;;;3.17;1.30;;;;;;;;;;10351967;27;20050;-73
2022/04/15 21:38:48;;;;;;;1.25;1.10;;;;;;;;;;10360862;28;20047;-72
2022/04/15 21:43:52;;;;;;;1.10;1.00;;;;;;;;;;10357315;28;20509;-75
2022/04/15 21:48:52;;;;;;;1.88;0.90;;;;;;;;;;10351622;28;20135;-78
2022/04/15 21:53:53;;;;;;;3.33;1.20;;;;;;;;;;10341123;28;20058;-73
2022/04/15 21:58:54;;;;;;;1.42;0.90;;;;;;;;;;10340567;28;20053;-72
2022/04/15 22:03:55;;;;;;;2.72;1.20;;;;;;;;;;10348901;28;20061;-72
2022/04/15 22:08:56;;;;;;;1.43;1.00;;;;;;;;;;10355210;27;20046;-73
2022/04/15 22:13:57;;;;;;;1.10;1.00;;;;;;;;;;10350244;27;20042;-74
2022/04/15 22:18:59;;;;;;;1.05;0.95;;;;;;;;;;10342170;27;20050;-73
2022/04/15 22:23:59;;;;;;;1.00;0.90;;;;;;;;;;10334943;28;20395;-73
2022/04/15 22:28:59;;;;;;;1.10;0.90;;;;;;;;;;10343526;28;20532;-75
2022/04/15 22:34:00;;;;;;;1.70;1.00;;;;;;;;;;10346684;28;20605;-72
2022/04/15 22:39:00;;;;;;;1.20;0.80;;;;;;;;;;10352720;27;20054;-73
2022/04/15 22:44:00;;;;;;;1.10;0.90;;;;;;;;;;10340740;28;20396;-73
2022/04/15 22:49:02;;;;;;;1.03;0.93;;;;;;;;;;10445286;27;20060;-72
2022/04/15 22:54:02;;;;;;;1.77;1.20;;;;;;;;;;10341149;28;20050;-75
2022/04/15 22:59:03;;;;;;;2.33;0.85;;;;;;;;;;10353656;28;20274;-72
2022/04/15 23:04:05;;;;;;;1.67;0.90;;;;;;;;;;10350923;28;20058;-74
2022/04/15 23:09:05;;;;;;;0.70;0.70;;;;;;;;;;10345256;28;20046;-73
2022/04/15 23:14:05;;;;;;;2.57;1.00;;;;;;;;;;10358407;28;20521;-66
2022/04/15 23:19:07;;;;;;;1.23;0.75;;;;;;;;;;10367440;28;20418;-67
2022/04/15 23:24:09;;;;;;;2.65;1.00;;;;;;;;;;10357715;28;20053;-67
2022/04/15 23:29:10;;;;;;;1.95;1.27;;;;;;;;;;10355144;28;20050;-66
2022/04/15 23:34:11;;;;;;;2.40;1.20;;;;;;;;;;10367712;28;20046;-67
2022/04/15 23:39:12;;;;;;;1.90;1.60;;;;;;;;;;10363930;28;20543;-67
2022/04/15 23:44:12;;;;;;;1.77;1.42;;;;;;;;;;10366364;28;20056;-66
2022/04/15 23:49:12;;;;;;;1.80;1.40;;;;;;;;;;10353580;28;20512;-66
2022/04/15 23:54:16;;;;;;;1.55;1.27;;;;;;;;;;10381774;28;20056;-67
2022/04/15 23:59:17;;;;;;;1.80;1.40;;;;;;;;;;10367931;28;20046;-66
